sensor_id;sensor_type;location;lat;lon;timestamp;temperature;humidity
12053;DHT22;6087;48.982;12.064;2023-03-25T00:01:30;8.60;99.90
12053;DHT22;6087;48.982;12.064;2023-03-25T00:03:57;8.50;99.90
12053;DHT22;6087;48.982;12.064;2023-03-25T00:06:27;8.50;99.90
12053;DHT22;6087;48.982;12.064;2023-03-25T00:08:54;8.50;99.90
12053;DHT22;6087;48.982;12.064;2023-03-25T00:11:21;8.50;99.90
12053;DHT22;6087;48.982;12.064;2023-03-25T00:13:49;8.40;99.90
12053;DHT22;6087;48.982;12.064;2023-03-25T00:16:15;8.40;99.90
12053;DHT22;6087;48.982;12.064;2023-03-25T00:18:43;8.40;99.90
12053;DHT22;6087;48.982;12.064;2023-03-25T00:21:13;8.40;99.90
12053;DHT22;6087;48.982;12.064;2023-03-25T00:23:41;8.40;99.90
12053;DHT22;6087;48.982;12.064;2023-03-25T00:26:13;8.40;99.90
12053;DHT22;6087;48.982;12.064;2023-03-25T00:28:40;8.30;99.90
12053;DHT22;6087;48.982;12.064;2023-03-25T00:31:10;8.30;99.90
12053;DHT22;6087;48.982;12.064;2023-03-25T00:33:37;8.30;99.90
12053;DHT22;6087;48.982;12.064;2023-03-25T00:36:07;8.30;99.90
12053;DHT22;6087;48.982;12.064;2023-03-25T00:38:34;8.30;99.90
12053;DHT22;6087;48.982;12.064;2023-03-25T00:41:15;8.30;99.90
12053;DHT22;6087;48.982;12.064;2023-03-25T00:43:47;8.30;99.90
12053;DHT22;6087;48.982;12.064;2023-03-25T00:46:15;8.30;99.90
12053;DHT22;6087;48.982;12.064;2023-03-25T00:48:42;8.40;99.90
12053;DHT22;6087;48.982;12.064;2023-03-25T00:51:09;8.30;99.90
12053;DHT22;6087;48.982;12.064;2023-03-25T00:53:39;8.40;99.90
12053;DHT22;6087;48.982;12.064;2023-03-25T00:56:06;8.40;99.90
12053;DHT22;6087;48.982;12.064;2023-03-25T00:58:34;8.40;99.90
12053;DHT22;6087;48.982;12.064;2023-03-25T01:01:07;8.40;99.90
12053;DHT22;6087;48.982;12.064;2023-03-25T01:03:35;8.40;99.90
12053;DHT22;6087;48.982;12.064;2023-03-25T01:06:03;8.40;99.90
12053;DHT22;6087;48.982;12.064;2023-03-25T01:08:30;8.40;99.90
12053;DHT22;6087;48.982;12.064;2023-03-25T01:10:56;8.40;99.90
12053;DHT22;6087;48.982;12.064;2023-03-25T01:13:24;8.40;99.90
12053;DHT22;6087;48.982;12.064;2023-03-25T01:15:52;8.40;99.90
12053;DHT22;6087;48.982;12.064;2023-03-25T01:18:19;8.40;99.90
12053;DHT22;6087;48.982;12.064;2023-03-25T01:20:46;8.30;99.90
12053;DHT22;6087;48.982;12.064;2023-03-25T01:23:13;8.30;99.90
12053;DHT22;6087;48.982;12.064;2023-03-25T01:25:40;8.30;99.90
12053;DHT22;6087;48.982;12.064;2023-03-25T01:28:06;8.30;99.90
12053;DHT22;6087;48.982;12.064;2023-03-25T01:30:33;8.30;99.90
12053;DHT22;6087;48.982;12.064;2023-03-25T01:33:02;8.30;99.90
12053;DHT22;6087;48.982;12.064;2023-03-25T01:35:29;8.30;99.90
12053;DHT22;6087;48.982;12.064;2023-03-25T01:37:56;8.20;99.90
12053;DHT22;6087;48.982;12.064;2023-03-25T01:40:23;8.20;99.90
12053;DHT22;6087;48.982;12.064;2023-03-25T01:42:50;8.20;99.90
12053;DHT22;6087;48.982;12.064;2023-03-25T01:45:28;8.20;99.90
12053;DHT22;6087;48.982;12.064;2023-03-25T01:48:05;8.20;99.90
12053;DHT22;6087;48.982;12.064;2023-03-25T01:50:35;8.10;99.90
12053;DHT22;6087;48.982;12.064;2023-03-25T01:53:04;8.10;99.90
12053;DHT22;6087;48.982;12.064;2023-03-25T01:55:33;8.10;99.90
12053;DHT22;6087;48.982;12.064;2023-03-25T01:58:03;8.10;99.90
12053;DHT22;6087;48.982;12.064;2023-03-25T02:00:32;8.10;99.90
12053;DHT22;6087;48.982;12.064;2023-03-25T02:03:00;8.10;99.90
12053;DHT22;6087;48.982;12.064;2023-03-25T02:05:33;8.10;99.90
12053;DHT22;6087;48.982;12.064;2023-03-25T02:08:04;8.10;99.90
12053;DHT22;6087;48.982;12.064;2023-03-25T02:10:34;8.10;99.90
12053;DHT22;6087;48.982;12.064;2023-03-25T02:13:01;8.20;99.90
12053;DHT22;6087;48.982;12.064;2023-03-25T02:15:36;8.20;99.90
12053;DHT22;6087;48.982;12.064;2023-03-25T02:18:14;8.10;99.90
12053;DHT22;6087;48.982;12.064;2023-03-25T02:24:13;8.10;99.90
12053;DHT22;6087;48.982;12.064;2023-03-25T02:27:15;8.10;99.90
12053;DHT22;6087;48.982;12.064;2023-03-25T02:30:32;8.10;99.90
12053;DHT22;6087;48.982;12.064;2023-03-25T02:39:09;8.10;99.90
12053;DHT22;6087;48.982;12.064;2023-03-25T02:41:43;8.00;99.90
12053;DHT22;6087;48.982;12.064;2023-03-25T02:44:24;8.00;99.90
12053;DHT22;6087;48.982;12.064;2023-03-25T02:46:57;8.00;99.90
12053;DHT22;6087;48.982;12.064;2023-03-25T02:49:29;8.10;99.90
12053;DHT22;6087;48.982;12.064;2023-03-25T02:52:00;8.10;99.90
12053;DHT22;6087;48.982;12.064;2023-03-25T02:54:33;8.10;99.90
12053;DHT22;6087;48.982;12.064;2023-03-25T02:57:01;8.10;99.90
12053;DHT22;6087;48.982;12.064;2023-03-25T02:59:30;8.10;99.90
12053;DHT22;6087;48.982;12.064;2023-03-25T03:01:59;8.10;99.90
12053;DHT22;6087;48.982;12.064;2023-03-25T03:04:27;8.10;99.90
12053;DHT22;6087;48.982;12.064;2023-03-25T03:06:54;8.10;99.90
12053;DHT22;6087;48.982;12.064;2023-03-25T03:09:36;8.10;99.90
12053;DHT22;6087;48.982;12.064;2023-03-25T03:12:17;8.10;99.90
12053;DHT22;6087;48.982;12.064;2023-03-25T03:15:02;8.10;99.90
12053;DHT22;6087;48.982;12.064;2023-03-25T03:17:37;8.10;99.90
12053;DHT22;6087;48.982;12.064;2023-03-25T03:20:15;8.00;99.90
12053;DHT22;6087;48.982;12.064;2023-03-25T03:22:46;8.10;99.90
12053;DHT22;6087;48.982;12.064;2023-03-25T03:25:21;8.10;99.90
12053;DHT22;6087;48.982;12.064;2023-03-25T03:27:55;8.10;99.90
12053;DHT22;6087;48.982;12.064;2023-03-25T03:30:28;8.10;99.90
12053;DHT22;6087;48.982;12.064;2023-03-25T03:33:01;8.10;99.90
12053;DHT22;6087;48.982;12.064;2023-03-25T03:35:38;8.10;99.90
12053;DHT22;6087;48.982;12.064;2023-03-25T03:38:12;8.10;99.90
12053;DHT22;6087;48.982;12.064;2023-03-25T03:40:45;8.00;99.90
12053;DHT22;6087;48.982;12.064;2023-03-25T03:43:20;8.00;99.90
12053;DHT22;6087;48.982;12.064;2023-03-25T03:45:51;8.00;99.90
12053;DHT22;6087;48.982;12.064;2023-03-25T03:48:23;8.00;99.90
12053;DHT22;6087;48.982;12.064;2023-03-25T03:50:54;8.00;99.90
12053;DHT22;6087;48.982;12.064;2023-03-25T03:53:25;7.90;99.90
12053;DHT22;6087;48.982;12.064;2023-03-25T03:56:00;7.90;99.90
12053;DHT22;6087;48.982;12.064;2023-03-25T03:58:30;7.90;99.90
12053;DHT22;6087;48.982;12.064;2023-03-25T04:01:02;7.90;99.90
12053;DHT22;6087;48.982;12.064;2023-03-25T04:03:36;7.90;99.90
12053;DHT22;6087;48.982;12.064;2023-03-25T04:06:10;7.80;99.90
12053;DHT22;6087;48.982;12.064;2023-03-25T04:08:45;7.70;99.90
12053;DHT22;6087;48.982;12.064;2023-03-25T04:11:22;7.80;99.90
12053;DHT22;6087;48.982;12.064;2023-03-25T04:13:53;7.80;99.90
12053;DHT22;6087;48.982;12.064;2023-03-25T04:16:23;7.70;99.90
12053;DHT22;6087;48.982;12.064;2023-03-25T04:18:50;7.70;99.90
12053;DHT22;6087;48.982;12.064;2023-03-25T04:21:18;7.60;99.90
12053;DHT22;6087;48.982;12.064;2023-03-25T04:23:45;7.60;99.90
12053;DHT22;6087;48.982;12.064;2023-03-25T04:26:12;7.60;99.90
12053;DHT22;6087;48.982;12.064;2023-03-25T04:28:41;7.60;99.90
12053;DHT22;6087;48.982;12.064;2023-03-25T04:31:11;7.50;99.90
12053;DHT22;6087;48.982;12.064;2023-03-25T04:33:40;7.50;99.90
12053;DHT22;6087;48.982;12.064;2023-03-25T04:36:11;7.40;99.90
12053;DHT22;6087;48.982;12.064;2023-03-25T04:38:39;7.40;99.90
12053;DHT22;6087;48.982;12.064;2023-03-25T04:41:10;7.50;99.90
12053;DHT22;6087;48.982;12.064;2023-03-25T04:43:38;7.50;99.90
12053;DHT22;6087;48.982;12.064;2023-03-25T04:46:10;7.40;99.90
12053;DHT22;6087;48.982;12.064;2023-03-25T04:48:38;7.40;99.90
12053;DHT22;6087;48.982;12.064;2023-03-25T04:51:10;7.40;99.90
12053;DHT22;6087;48.982;12.064;2023-03-25T04:53:38;7.40;99.90
12053;DHT22;6087;48.982;12.064;2023-03-25T04:56:07;7.40;99.90
12053;DHT22;6087;48.982;12.064;2023-03-25T04:58:38;7.40;99.90
12053;DHT22;6087;48.982;12.064;2023-03-25T05:01:07;7.40;99.90
12053;DHT22;6087;48.982;12.064;2023-03-25T05:03:35;7.40;99.90
12053;DHT22;6087;48.982;12.064;2023-03-25T05:06:05;7.40;99.90
12053;DHT22;6087;48.982;12.064;2023-03-25T05:08:32;7.40;99.90
12053;DHT22;6087;48.982;12.064;2023-03-25T05:10:59;7.40;99.90
12053;DHT22;6087;48.982;12.064;2023-03-25T05:13:27;7.50;99.90
12053;DHT22;6087;48.982;12.064;2023-03-25T05:15:54;7.50;99.90
12053;DHT22;6087;48.982;12.064;2023-03-25T05:18:23;7.50;99.90
12053;DHT22;6087;48.982;12.064;2023-03-25T05:20:49;7.50;99.90
12053;DHT22;6087;48.982;12.064;2023-03-25T05:23:18;7.50;99.90
12053;DHT22;6087;48.982;12.064;2023-03-25T05:25:48;7.50;99.90
12053;DHT22;6087;48.982;12.064;2023-03-25T05:28:15;7.50;99.90
12053;DHT22;6087;48.982;12.064;2023-03-25T05:30:44;7.50;99.90
12053;DHT22;6087;48.982;12.064;2023-03-25T05:33:12;7.40;99.90
12053;DHT22;6087;48.982;12.064;2023-03-25T05:35:42;7.50;99.90
12053;DHT22;6087;48.982;12.064;2023-03-25T05:38:10;7.50;99.90
12053;DHT22;6087;48.982;12.064;2023-03-25T05:40:38;7.60;99.90
12053;DHT22;6087;48.982;12.064;2023-03-25T05:43:06;7.50;99.90
12053;DHT22;6087;48.982;12.064;2023-03-25T05:45:36;7.50;99.90
12053;DHT22;6087;48.982;12.064;2023-03-25T05:48:03;7.50;99.90
12053;DHT22;6087;48.982;12.064;2023-03-25T05:50:30;7.60;99.90
12053;DHT22;6087;48.982;12.064;2023-03-25T05:52:58;7.60;99.90
12053;DHT22;6087;48.982;12.064;2023-03-25T05:55:26;7.60;99.90
12053;DHT22;6087;48.982;12.064;2023-03-25T05:57:53;7.60;99.90
12053;DHT22;6087;48.982;12.064;2023-03-25T06:00:21;7.60;99.90
12053;DHT22;6087;48.982;12.064;2023-03-25T06:02:49;7.70;99.90
12053;DHT22;6087;48.982;12.064;2023-03-25T06:05:16;7.70;99.90
12053;DHT22;6087;48.982;12.064;2023-03-25T06:07:48;7.60;99.90
12053;DHT22;6087;48.982;12.064;2023-03-25T06:10:17;7.60;99.90
12053;DHT22;6087;48.982;12.064;2023-03-25T06:12:45;7.60;99.80
12053;DHT22;6087;48.982;12.064;2023-03-25T06:15:13;7.50;99.90
12053;DHT22;6087;48.982;12.064;2023-03-25T06:17:42;7.60;99.90
12053;DHT22;6087;48.982;12.064;2023-03-25T06:20:12;7.60;99.90
12053;DHT22;6087;48.982;12.064;2023-03-25T06:22:43;7.60;99.90
12053;DHT22;6087;48.982;12.064;2023-03-25T06:25:12;7.60;99.90
12053;DHT22;6087;48.982;12.064;2023-03-25T06:27:43;7.60;97.60
12053;DHT22;6087;48.982;12.064;2023-03-25T06:30:12;7.60;97.80
12053;DHT22;6087;48.982;12.064;2023-03-25T06:32:40;7.60;97.40
12053;DHT22;6087;48.982;12.064;2023-03-25T06:35:08;7.60;96.70
12053;DHT22;6087;48.982;12.064;2023-03-25T06:37:36;7.60;96.30
12053;DHT22;6087;48.982;12.064;2023-03-25T06:40:04;7.60;96.10
12053;DHT22;6087;48.982;12.064;2023-03-25T06:42:31;7.70;95.20
12053;DHT22;6087;48.982;12.064;2023-03-25T06:44:59;7.60;92.40
12053;DHT22;6087;48.982;12.064;2023-03-25T06:47:29;7.60;92.70
12053;DHT22;6087;48.982;12.064;2023-03-25T06:49:59;7.60;91.60
12053;DHT22;6087;48.982;12.064;2023-03-25T06:52:29;7.70;90.70
12053;DHT22;6087;48.982;12.064;2023-03-25T06:54:56;7.70;89.20
12053;DHT22;6087;48.982;12.064;2023-03-25T06:57:22;7.70;90.50
12053;DHT22;6087;48.982;12.064;2023-03-25T06:59:49;7.80;88.90
12053;DHT22;6087;48.982;12.064;2023-03-25T07:02:18;7.80;88.90
12053;DHT22;6087;48.982;12.064;2023-03-25T07:04:45;7.80;88.40
12053;DHT22;6087;48.982;12.064;2023-03-25T07:07:12;7.80;90.30
12053;DHT22;6087;48.982;12.064;2023-03-25T07:09:38;7.80;90.00
12053;DHT22;6087;48.982;12.064;2023-03-25T07:12:06;7.80;90.00
12053;DHT22;6087;48.982;12.064;2023-03-25T07:14:33;7.80;90.00
12053;DHT22;6087;48.982;12.064;2023-03-25T07:17:00;7.80;88.60
12053;DHT22;6087;48.982;12.064;2023-03-25T07:19:28;7.80;87.50
12053;DHT22;6087;48.982;12.064;2023-03-25T07:21:55;7.90;88.50
12053;DHT22;6087;48.982;12.064;2023-03-25T07:24:22;7.80;88.60
12053;DHT22;6087;48.982;12.064;2023-03-25T07:26:49;7.90;88.20
12053;DHT22;6087;48.982;12.064;2023-03-25T07:29:16;7.90;85.00
12053;DHT22;6087;48.982;12.064;2023-03-25T07:31:43;8.00;87.10
12053;DHT22;6087;48.982;12.064;2023-03-25T07:34:11;8.10;88.40
12053;DHT22;6087;48.982;12.064;2023-03-25T07:36:39;8.10;82.90
12053;DHT22;6087;48.982;12.064;2023-03-25T07:39:06;8.10;81.80
12053;DHT22;6087;48.982;12.064;2023-03-25T07:41:33;8.10;81.50
12053;DHT22;6087;48.982;12.064;2023-03-25T07:44:00;8.10;83.00
12053;DHT22;6087;48.982;12.064;2023-03-25T07:46:27;8.20;81.20
12053;DHT22;6087;48.982;12.064;2023-03-25T07:48:54;8.30;81.00
12053;DHT22;6087;48.982;12.064;2023-03-25T07:51:20;8.30;78.50
12053;DHT22;6087;48.982;12.064;2023-03-25T07:53:49;8.40;77.80
12053;DHT22;6087;48.982;12.064;2023-03-25T07:56:16;8.40;75.30
12053;DHT22;6087;48.982;12.064;2023-03-25T07:58:43;8.40;74.20
12053;DHT22;6087;48.982;12.064;2023-03-25T08:01:10;8.40;72.60
12053;DHT22;6087;48.982;12.064;2023-03-25T08:03:37;8.40;71.50
12053;DHT22;6087;48.982;12.064;2023-03-25T08:06:04;8.50;73.30
12053;DHT22;6087;48.982;12.064;2023-03-25T08:08:32;8.50;73.90
12053;DHT22;6087;48.982;12.064;2023-03-25T08:11:00;8.50;74.40
12053;DHT22;6087;48.982;12.064;2023-03-25T08:13:28;8.50;73.90
12053;DHT22;6087;48.982;12.064;2023-03-25T08:15:55;8.50;76.60
12053;DHT22;6087;48.982;12.064;2023-03-25T08:18:22;8.50;75.20
12053;DHT22;6087;48.982;12.064;2023-03-25T08:20:51;8.50;74.60
12053;DHT22;6087;48.982;12.064;2023-03-25T08:23:19;8.50;75.50
12053;DHT22;6087;48.982;12.064;2023-03-25T08:25:48;8.40;77.20
12053;DHT22;6087;48.982;12.064;2023-03-25T08:28:18;8.50;76.20
12053;DHT22;6087;48.982;12.064;2023-03-25T08:30:47;8.60;78.00
12053;DHT22;6087;48.982;12.064;2023-03-25T08:33:14;8.60;75.90
12053;DHT22;6087;48.982;12.064;2023-03-25T08:35:43;8.60;77.30
12053;DHT22;6087;48.982;12.064;2023-03-25T08:38:10;8.60;75.70
12053;DHT22;6087;48.982;12.064;2023-03-25T08:40:37;8.60;74.20
12053;DHT22;6087;48.982;12.064;2023-03-25T08:43:06;8.60;74.70
12053;DHT22;6087;48.982;12.064;2023-03-25T08:45:34;8.60;74.30
12053;DHT22;6087;48.982;12.064;2023-03-25T08:48:02;8.60;74.30
12053;DHT22;6087;48.982;12.064;2023-03-25T08:50:29;8.70;72.60
12053;DHT22;6087;48.982;12.064;2023-03-25T08:52:56;8.70;73.90
12053;DHT22;6087;48.982;12.064;2023-03-25T08:55:24;8.80;73.20
12053;DHT22;6087;48.982;12.064;2023-03-25T08:57:51;8.70;68.90
12053;DHT22;6087;48.982;12.064;2023-03-25T09:00:18;8.80;68.20
12053;DHT22;6087;48.982;12.064;2023-03-25T09:02:50;8.80;69.50
12053;DHT22;6087;48.982;12.064;2023-03-25T09:05:17;8.90;70.30
12053;DHT22;6087;48.982;12.064;2023-03-25T09:07:45;9.00;69.30
12053;DHT22;6087;48.982;12.064;2023-03-25T09:10:12;9.00;65.80
12053;DHT22;6087;48.982;12.064;2023-03-25T09:12:39;9.00;66.60
12053;DHT22;6087;48.982;12.064;2023-03-25T09:15:07;9.10;66.60
12053;DHT22;6087;48.982;12.064;2023-03-25T09:17:38;9.10;66.20
12053;DHT22;6087;48.982;12.064;2023-03-25T09:20:07;9.10;66.20
12053;DHT22;6087;48.982;12.064;2023-03-25T09:22:34;9.10;67.00
12053;DHT22;6087;48.982;12.064;2023-03-25T09:25:05;9.00;67.50
12053;DHT22;6087;48.982;12.064;2023-03-25T09:27:32;8.70;73.50
12053;DHT22;6087;48.982;12.064;2023-03-25T09:29:59;8.60;86.20
12053;DHT22;6087;48.982;12.064;2023-03-25T09:32:26;8.70;90.20
12053;DHT22;6087;48.982;12.064;2023-03-25T09:34:53;8.70;86.70
12053;DHT22;6087;48.982;12.064;2023-03-25T09:37:21;8.80;82.60
12053;DHT22;6087;48.982;12.064;2023-03-25T09:39:48;8.90;79.00
12053;DHT22;6087;48.982;12.064;2023-03-25T09:42:33;9.00;75.80
12053;DHT22;6087;48.982;12.064;2023-03-25T09:45:09;9.00;72.60
12053;DHT22;6087;48.982;12.064;2023-03-25T09:47:43;9.10;73.60
12053;DHT22;6087;48.982;12.064;2023-03-25T09:50:15;9.30;71.60
12053;DHT22;6087;48.982;12.064;2023-03-25T09:52:51;9.50;70.40
12053;DHT22;6087;48.982;12.064;2023-03-25T09:55:24;9.60;66.40
12053;DHT22;6087;48.982;12.064;2023-03-25T09:57:56;9.50;63.10
12053;DHT22;6087;48.982;12.064;2023-03-25T10:00:26;9.40;59.70
12053;DHT22;6087;48.982;12.064;2023-03-25T10:02:58;9.50;59.10
12053;DHT22;6087;48.982;12.064;2023-03-25T10:05:44;9.60;55.20
12053;DHT22;6087;48.982;12.064;2023-03-25T10:08:23;9.60;52.30
12053;DHT22;6087;48.982;12.064;2023-03-25T10:10:55;9.60;51.30
12053;DHT22;6087;48.982;12.064;2023-03-25T10:13:31;9.60;50.60
12053;DHT22;6087;48.982;12.064;2023-03-25T10:16:05;9.70;51.20
12053;DHT22;6087;48.982;12.064;2023-03-25T10:18:48;9.80;51.70
12053;DHT22;6087;48.982;12.064;2023-03-25T10:21:19;9.90;50.80
12053;DHT22;6087;48.982;12.064;2023-03-25T10:23:58;10.00;50.80
12053;DHT22;6087;48.982;12.064;2023-03-25T10:26:30;10.10;50.00
12053;DHT22;6087;48.982;12.064;2023-03-25T10:29:05;10.10;49.20
12053;DHT22;6087;48.982;12.064;2023-03-25T10:31:37;10.10;49.80
12053;DHT22;6087;48.982;12.064;2023-03-25T10:34:08;10.10;50.50
12053;DHT22;6087;48.982;12.064;2023-03-25T10:36:39;10.00;49.60
12053;DHT22;6087;48.982;12.064;2023-03-25T10:39:16;10.00;47.80
12053;DHT22;6087;48.982;12.064;2023-03-25T10:41:46;10.00;48.50
12053;DHT22;6087;48.982;12.064;2023-03-25T10:44:16;10.00;50.90
12053;DHT22;6087;48.982;12.064;2023-03-25T10:46:46;9.90;51.90
12053;DHT22;6087;48.982;12.064;2023-03-25T10:49:18;10.00;52.50
12053;DHT22;6087;48.982;12.064;2023-03-25T10:51:47;10.00;53.50
12053;DHT22;6087;48.982;12.064;2023-03-25T10:54:16;10.20;53.70
12053;DHT22;6087;48.982;12.064;2023-03-25T10:56:46;10.20;51.30
12053;DHT22;6087;48.982;12.064;2023-03-25T10:59:18;10.00;51.60
12053;DHT22;6087;48.982;12.064;2023-03-25T11:01:49;10.10;53.50
12053;DHT22;6087;48.982;12.064;2023-03-25T11:04:18;10.20;53.20
12053;DHT22;6087;48.982;12.064;2023-03-25T11:06:52;10.20;52.60
12053;DHT22;6087;48.982;12.064;2023-03-25T11:09:24;10.10;52.60
12053;DHT22;6087;48.982;12.064;2023-03-25T11:11:53;10.20;52.50
12053;DHT22;6087;48.982;12.064;2023-03-25T11:14:22;10.20;48.30
12053;DHT22;6087;48.982;12.064;2023-03-25T11:16:54;10.30;46.10
12053;DHT22;6087;48.982;12.064;2023-03-25T11:19:24;10.40;46.70
12053;DHT22;6087;48.982;12.064;2023-03-25T11:21:54;10.40;45.90
12053;DHT22;6087;48.982;12.064;2023-03-25T11:24:29;10.40;45.00
12053;DHT22;6087;48.982;12.064;2023-03-25T11:26:57;10.50;46.80
12053;DHT22;6087;48.982;12.064;2023-03-25T11:29:25;10.40;45.50
12053;DHT22;6087;48.982;12.064;2023-03-25T11:31:57;10.50;46.50
12053;DHT22;6087;48.982;12.064;2023-03-25T11:34:30;10.20;48.10
12053;DHT22;6087;48.982;12.064;2023-03-25T11:37:00;9.90;52.80
12053;DHT22;6087;48.982;12.064;2023-03-25T11:39:33;9.80;55.90
12053;DHT22;6087;48.982;12.064;2023-03-25T11:42:12;9.60;58.20
12053;DHT22;6087;48.982;12.064;2023-03-25T11:44:39;9.40;61.40
12053;DHT22;6087;48.982;12.064;2023-03-25T11:47:08;9.30;67.70
12053;DHT22;6087;48.982;12.064;2023-03-25T11:49:38;9.30;72.00
12053;DHT22;6087;48.982;12.064;2023-03-25T11:52:07;9.40;75.40
12053;DHT22;6087;48.982;12.064;2023-03-25T11:54:37;9.30;71.50
12053;DHT22;6087;48.982;12.064;2023-03-25T11:57:11;9.30;79.80
12053;DHT22;6087;48.982;12.064;2023-03-25T11:59:43;9.20;73.50
12053;DHT22;6087;48.982;12.064;2023-03-25T12:02:20;8.90;77.60
12053;DHT22;6087;48.982;12.064;2023-03-25T12:04:56;8.90;84.50
12053;DHT22;6087;48.982;12.064;2023-03-25T12:07:23;9.00;90.00
12053;DHT22;6087;48.982;12.064;2023-03-25T12:09:55;9.30;88.80
12053;DHT22;6087;48.982;12.064;2023-03-25T12:12:32;9.70;85.00
12053;DHT22;6087;48.982;12.064;2023-03-25T12:15:15;10.90;87.70
12053;DHT22;6087;48.982;12.064;2023-03-25T12:18:00;12.10;61.20
12053;DHT22;6087;48.982;12.064;2023-03-25T12:20:46;13.70;52.10
12053;DHT22;6087;48.982;12.064;2023-03-25T12:23:22;14.80;45.70
12053;DHT22;6087;48.982;12.064;2023-03-25T12:25:59;15.90;41.80
12053;DHT22;6087;48.982;12.064;2023-03-25T12:28:43;15.60;35.20
12053;DHT22;6087;48.982;12.064;2023-03-25T12:31:26;15.30;33.10
12053;DHT22;6087;48.982;12.064;2023-03-25T12:34:11;15.30;32.50
12053;DHT22;6087;48.982;12.064;2023-03-25T12:36:49;14.40;35.00
12053;DHT22;6087;48.982;12.064;2023-03-25T12:39:33;13.70;35.50
12053;DHT22;6087;48.982;12.064;2023-03-25T12:42:13;12.80;37.40
12053;DHT22;6087;48.982;12.064;2023-03-25T12:44:59;12.20;40.50
12053;DHT22;6087;48.982;12.064;2023-03-25T12:47:33;12.20;43.30
12053;DHT22;6087;48.982;12.064;2023-03-25T12:50:25;12.10;44.50
12053;DHT22;6087;48.982;12.064;2023-03-25T12:53:00;12.10;43.60
12053;DHT22;6087;48.982;12.064;2023-03-25T12:55:41;12.00;43.80
12053;DHT22;6087;48.982;12.064;2023-03-25T12:58:32;11.80;42.40
12053;DHT22;6087;48.982;12.064;2023-03-25T13:01:10;11.40;43.30
12053;DHT22;6087;48.982;12.064;2023-03-25T13:03:52;11.10;44.00
12053;DHT22;6087;48.982;12.064;2023-03-25T13:06:26;11.00;46.40
12053;DHT22;6087;48.982;12.064;2023-03-25T13:08:58;11.00;49.50
12053;DHT22;6087;48.982;12.064;2023-03-25T13:11:30;10.80;51.20
12053;DHT22;6087;48.982;12.064;2023-03-25T13:14:04;10.50;50.90
12053;DHT22;6087;48.982;12.064;2023-03-25T13:16:35;10.20;55.40
12053;DHT22;6087;48.982;12.064;2023-03-25T13:19:06;10.20;60.30
12053;DHT22;6087;48.982;12.064;2023-03-25T13:21:38;10.10;65.80
12053;DHT22;6087;48.982;12.064;2023-03-25T13:24:09;10.00;76.10
12053;DHT22;6087;48.982;12.064;2023-03-25T13:26:39;9.90;77.90
12053;DHT22;6087;48.982;12.064;2023-03-25T13:29:12;9.80;83.10
12053;DHT22;6087;48.982;12.064;2023-03-25T13:31:44;9.80;83.00
12053;DHT22;6087;48.982;12.064;2023-03-25T13:34:19;9.50;84.90
12053;DHT22;6087;48.982;12.064;2023-03-25T13:36:52;9.40;89.70
12053;DHT22;6087;48.982;12.064;2023-03-25T13:39:32;9.30;71.70
12053;DHT22;6087;48.982;12.064;2023-03-25T13:42:04;9.30;68.80
12053;DHT22;6087;48.982;12.064;2023-03-25T13:44:42;9.20;68.70
12053;DHT22;6087;48.982;12.064;2023-03-25T13:47:16;9.10;67.00
12053;DHT22;6087;48.982;12.064;2023-03-25T13:49:48;9.00;68.80
12053;DHT22;6087;48.982;12.064;2023-03-25T13:52:16;9.00;73.00
12053;DHT22;6087;48.982;12.064;2023-03-25T13:54:47;9.10;73.00
12053;DHT22;6087;48.982;12.064;2023-03-25T14:00:31;9.10;80.80
12053;DHT22;6087;48.982;12.064;2023-03-25T14:03:26;9.20;75.90
12053;DHT22;6087;48.982;12.064;2023-03-25T14:06:30;9.20;76.40
12053;DHT22;6087;48.982;12.064;2023-03-25T14:09:30;9.20;79.40
12053;DHT22;6087;48.982;12.064;2023-03-25T14:12:05;9.20;74.90
12053;DHT22;6087;48.982;12.064;2023-03-25T14:14:37;9.50;75.50
12053;DHT22;6087;48.982;12.064;2023-03-25T14:17:08;9.90;75.50
12053;DHT22;6087;48.982;12.064;2023-03-25T14:19:37;10.20;67.90
12053;DHT22;6087;48.982;12.064;2023-03-25T14:22:07;10.40;65.60
12053;DHT22;6087;48.982;12.064;2023-03-25T14:24:36;10.80;62.60
12053;DHT22;6087;48.982;12.064;2023-03-25T14:27:05;11.00;61.70
12053;DHT22;6087;48.982;12.064;2023-03-25T14:29:36;10.90;59.60
12053;DHT22;6087;48.982;12.064;2023-03-25T14:32:31;11.10;58.70
12053;DHT22;6087;48.982;12.064;2023-03-25T14:41:15;11.00;57.00
12053;DHT22;6087;48.982;12.064;2023-03-25T14:43:44;11.10;56.90
12053;DHT22;6087;48.982;12.064;2023-03-25T14:46:16;11.10;56.80
12053;DHT22;6087;48.982;12.064;2023-03-25T14:48:50;11.20;55.70
12053;DHT22;6087;48.982;12.064;2023-03-25T14:51:23;11.10;56.70
12053;DHT22;6087;48.982;12.064;2023-03-25T14:54:02;11.00;57.90
12053;DHT22;6087;48.982;12.064;2023-03-25T14:56:33;10.90;59.40
12053;DHT22;6087;48.982;12.064;2023-03-25T14:59:07;10.80;59.80
12053;DHT22;6087;48.982;12.064;2023-03-25T15:01:36;10.60;59.80
12053;DHT22;6087;48.982;12.064;2023-03-25T15:04:12;10.60;61.50
12053;DHT22;6087;48.982;12.064;2023-03-25T15:06:40;10.60;61.90
12053;DHT22;6087;48.982;12.064;2023-03-25T15:09:09;10.50;62.10
12053;DHT22;6087;48.982;12.064;2023-03-25T15:11:39;10.40;62.90
12053;DHT22;6087;48.982;12.064;2023-03-25T15:14:09;10.40;63.30
12053;DHT22;6087;48.982;12.064;2023-03-25T15:16:53;10.30;62.70
12053;DHT22;6087;48.982;12.064;2023-03-25T15:19:22;10.20;62.80
12053;DHT22;6087;48.982;12.064;2023-03-25T15:22:20;10.10;65.90
12053;DHT22;6087;48.982;12.064;2023-03-25T15:24:54;9.50;68.60
12053;DHT22;6087;48.982;12.064;2023-03-25T15:27:44;9.10;81.90
12053;DHT22;6087;48.982;12.064;2023-03-25T15:33:28;8.60;92.90
12053;DHT22;6087;48.982;12.064;2023-03-25T15:36:09;8.50;93.40
12053;DHT22;6087;48.982;12.064;2023-03-25T15:38:59;8.50;93.00
12053;DHT22;6087;48.982;12.064;2023-03-25T15:41:50;8.50;91.60
12053;DHT22;6087;48.982;12.064;2023-03-25T15:44:47;8.90;92.40
12053;DHT22;6087;48.982;12.064;2023-03-25T15:47:36;9.10;83.20
12053;DHT22;6087;48.982;12.064;2023-03-25T15:50:22;9.20;77.70
12053;DHT22;6087;48.982;12.064;2023-03-25T15:53:18;9.20;75.80
12053;DHT22;6087;48.982;12.064;2023-03-25T15:55:49;9.20;78.50
12053;DHT22;6087;48.982;12.064;2023-03-25T15:58:23;9.30;73.20
12053;DHT22;6087;48.982;12.064;2023-03-25T16:00:56;9.40;74.50
12053;DHT22;6087;48.982;12.064;2023-03-25T16:03:28;9.50;70.50
12053;DHT22;6087;48.982;12.064;2023-03-25T16:05:58;9.50;69.90
12053;DHT22;6087;48.982;12.064;2023-03-25T16:08:30;9.50;66.50
12053;DHT22;6087;48.982;12.064;2023-03-25T16:11:17;9.50;65.60
12053;DHT22;6087;48.982;12.064;2023-03-25T16:14:03;9.60;65.60
12053;DHT22;6087;48.982;12.064;2023-03-25T16:16:31;9.60;65.90
12053;DHT22;6087;48.982;12.064;2023-03-25T16:19:01;9.60;64.70
12053;DHT22;6087;48.982;12.064;2023-03-25T16:21:29;9.60;63.20
12053;DHT22;6087;48.982;12.064;2023-03-25T16:24:02;9.60;64.10
12053;DHT22;6087;48.982;12.064;2023-03-25T16:26:35;9.50;63.30
12053;DHT22;6087;48.982;12.064;2023-03-25T16:29:08;9.50;63.60
12053;DHT22;6087;48.982;12.064;2023-03-25T16:31:35;9.50;64.70
12053;DHT22;6087;48.982;12.064;2023-03-25T16:34:12;9.60;64.00